sensor_id;sensor_type;location;lat;lon;timestamp;temperature;humidity
51029;DHT22;37054;52.054;8.600;2023-04-15T00:00:25;11.10;46.70
51029;DHT22;37054;52.054;8.600;2023-04-15T00:02:50;11.10;46.60
51029;DHT22;37054;52.054;8.600;2023-04-15T00:05:17;11.20;46.60
51029;DHT22;37054;52.054;8.600;2023-04-15T00:07:42;11.10;46.60
51029;DHT22;37054;52.054;8.600;2023-04-15T00:10:08;11.20;46.50
51029;DHT22;37054;52.054;8.600;2023-04-15T00:12:33;11.10;46.50
51029;DHT22;37054;52.054;8.600;2023-04-15T00:14:59;11.20;46.50
51029;DHT22;37054;52.054;8.600;2023-04-15T00:17:24;11.20;46.50
51029;DHT22;37054;52.054;8.600;2023-04-15T00:19:50;11.20;46.60
51029;DHT22;37054;52.054;8.600;2023-04-15T00:22:15;11.20;46.50
51029;DHT22;37054;52.054;8.600;2023-04-15T00:24:41;11.20;46.60
51029;DHT22;37054;52.054;8.600;2023-04-15T00:27:07;11.20;46.60
51029;DHT22;37054;52.054;8.600;2023-04-15T00:29:32;11.20;46.60
51029;DHT22;37054;52.054;8.600;2023-04-15T00:31:58;11.30;46.60
51029;DHT22;37054;52.054;8.600;2023-04-15T00:34:23;11.30;46.60
51029;DHT22;37054;52.054;8.600;2023-04-15T00:36:49;11.30;46.70
51029;DHT22;37054;52.054;8.600;2023-04-15T00:39:14;11.30;46.70
51029;DHT22;37054;52.054;8.600;2023-04-15T00:41:40;11.30;46.70
51029;DHT22;37054;52.054;8.600;2023-04-15T00:44:07;11.30;46.70
51029;DHT22;37054;52.054;8.600;2023-04-15T00:46:34;11.30;46.80
51029;DHT22;37054;52.054;8.600;2023-04-15T00:49:00;11.30;46.90
51029;DHT22;37054;52.054;8.600;2023-04-15T00:51:26;11.30;46.90
51029;DHT22;37054;52.054;8.600;2023-04-15T00:53:52;11.30;47.00
51029;DHT22;37054;52.054;8.600;2023-04-15T00:56:18;11.30;47.30
51029;DHT22;37054;52.054;8.600;2023-04-15T00:58:44;11.30;47.30
51029;DHT22;37054;52.054;8.600;2023-04-15T01:01:09;11.20;47.40
51029;DHT22;37054;52.054;8.600;2023-04-15T01:03:35;11.30;47.40
51029;DHT22;37054;52.054;8.600;2023-04-15T01:06:00;11.30;47.30
51029;DHT22;37054;52.054;8.600;2023-04-15T01:08:27;11.30;47.70
51029;DHT22;37054;52.054;8.600;2023-04-15T01:10:56;11.30;48.10
51029;DHT22;37054;52.054;8.600;2023-04-15T01:13:22;11.30;48.50
51029;DHT22;37054;52.054;8.600;2023-04-15T01:15:48;11.20;48.80
51029;DHT22;37054;52.054;8.600;2023-04-15T01:18:14;11.20;49.40
51029;DHT22;37054;52.054;8.600;2023-04-15T01:20:39;11.30;49.70
51029;DHT22;37054;52.054;8.600;2023-04-15T01:23:05;11.30;49.70
51029;DHT22;37054;52.054;8.600;2023-04-15T01:25:32;11.30;49.90
51029;DHT22;37054;52.054;8.600;2023-04-15T01:27:58;11.40;50.20
51029;DHT22;37054;52.054;8.600;2023-04-15T01:30:23;11.40;50.10
51029;DHT22;37054;52.054;8.600;2023-04-15T01:32:50;11.40;50.00
51029;DHT22;37054;52.054;8.600;2023-04-15T01:35:16;11.40;50.20
51029;DHT22;37054;52.054;8.600;2023-04-15T01:37:41;11.50;50.40
51029;DHT22;37054;52.054;8.600;2023-04-15T01:40:07;11.50;50.40
51029;DHT22;37054;52.054;8.600;2023-04-15T01:42:33;11.50;50.20
51029;DHT22;37054;52.054;8.600;2023-04-15T01:44:59;11.60;50.30
51029;DHT22;37054;52.054;8.600;2023-04-15T01:47:25;11.50;50.10
51029;DHT22;37054;52.054;8.600;2023-04-15T01:49:51;11.60;49.90
51029;DHT22;37054;52.054;8.600;2023-04-15T01:52:16;11.60;49.80
51029;DHT22;37054;52.054;8.600;2023-04-15T01:54:42;11.50;49.70
51029;DHT22;37054;52.054;8.600;2023-04-15T01:57:08;11.60;49.50
51029;DHT22;37054;52.054;8.600;2023-04-15T01:59:34;11.60;49.50
51029;DHT22;37054;52.054;8.600;2023-04-15T02:01:59;11.60;49.40
51029;DHT22;37054;52.054;8.600;2023-04-15T02:04:25;11.60;49.40
51029;DHT22;37054;52.054;8.600;2023-04-15T02:06:52;11.60;49.30
51029;DHT22;37054;52.054;8.600;2023-04-15T02:09:17;11.60;49.20
51029;DHT22;37054;52.054;8.600;2023-04-15T02:11:43;11.50;49.20
51029;DHT22;37054;52.054;8.600;2023-04-15T02:14:09;11.50;49.20
51029;DHT22;37054;52.054;8.600;2023-04-15T02:16:34;11.50;49.20
51029;DHT22;37054;52.054;8.600;2023-04-15T02:19:00;11.50;49.50
51029;DHT22;37054;52.054;8.600;2023-04-15T02:21:26;11.50;49.90
51029;DHT22;37054;52.054;8.600;2023-04-15T02:23:51;11.50;49.70
51029;DHT22;37054;52.054;8.600;2023-04-15T02:26:18;11.50;49.60
51029;DHT22;37054;52.054;8.600;2023-04-15T02:28:43;11.50;49.80
51029;DHT22;37054;52.054;8.600;2023-04-15T02:31:09;11.50;49.90
51029;DHT22;37054;52.054;8.600;2023-04-15T02:33:35;11.50;49.80
51029;DHT22;37054;52.054;8.600;2023-04-15T02:36:02;11.40;49.70
51029;DHT22;37054;52.054;8.600;2023-04-15T02:38:27;11.50;49.60
51029;DHT22;37054;52.054;8.600;2023-04-15T02:40:53;11.40;49.50
51029;DHT22;37054;52.054;8.600;2023-04-15T02:43:18;11.40;49.50
51029;DHT22;37054;52.054;8.600;2023-04-15T02:45:44;11.40;49.40
51029;DHT22;37054;52.054;8.600;2023-04-15T02:48:09;11.40;49.30
51029;DHT22;37054;52.054;8.600;2023-04-15T02:50:35;11.30;49.30
51029;DHT22;37054;52.054;8.600;2023-04-15T02:53:03;11.30;49.20
51029;DHT22;37054;52.054;8.600;2023-04-15T02:55:30;11.30;49.20
51029;DHT22;37054;52.054;8.600;2023-04-15T02:57:55;11.30;49.20
51029;DHT22;37054;52.054;8.600;2023-04-15T03:00:22;11.20;49.30
51029;DHT22;37054;52.054;8.600;2023-04-15T03:02:49;11.20;49.40
51029;DHT22;37054;52.054;8.600;2023-04-15T03:05:20;11.20;49.30
51029;DHT22;37054;52.054;8.600;2023-04-15T03:07:46;11.10;49.40
51029;DHT22;37054;52.054;8.600;2023-04-15T03:10:11;11.10;49.40
51029;DHT22;37054;52.054;8.600;2023-04-15T03:12:37;11.10;49.40
51029;DHT22;37054;52.054;8.600;2023-04-15T03:15:02;11.10;49.50
51029;DHT22;37054;52.054;8.600;2023-04-15T03:17:28;11.10;49.50
51029;DHT22;37054;52.054;8.600;2023-04-15T03:19:53;11.10;49.50
51029;DHT22;37054;52.054;8.600;2023-04-15T03:22:19;11.10;49.60
51029;DHT22;37054;52.054;8.600;2023-04-15T03:24:44;11.00;49.60
51029;DHT22;37054;52.054;8.600;2023-04-15T03:27:10;11.10;49.60
51029;DHT22;37054;52.054;8.600;2023-04-15T03:29:35;11.10;49.60
51029;DHT22;37054;52.054;8.600;2023-04-15T03:32:00;11.10;49.60
51029;DHT22;37054;52.054;8.600;2023-04-15T03:34:26;11.10;49.70
51029;DHT22;37054;52.054;8.600;2023-04-15T03:36:51;11.10;49.70
51029;DHT22;37054;52.054;8.600;2023-04-15T03:39:17;11.10;49.70
51029;DHT22;37054;52.054;8.600;2023-04-15T03:41:42;11.10;49.60
51029;DHT22;37054;52.054;8.600;2023-04-15T03:44:08;11.10;49.70
51029;DHT22;37054;52.054;8.600;2023-04-15T03:46:33;11.00;49.60
51029;DHT22;37054;52.054;8.600;2023-04-15T03:48:59;11.00;49.60
51029;DHT22;37054;52.054;8.600;2023-04-15T03:51:24;11.00;49.60
51029;DHT22;37054;52.054;8.600;2023-04-15T03:53:50;11.00;49.60
51029;DHT22;37054;52.054;8.600;2023-04-15T03:56:16;10.90;49.60
51029;DHT22;37054;52.054;8.600;2023-04-15T03:58:41;10.90;49.50
51029;DHT22;37054;52.054;8.600;2023-04-15T04:01:07;10.80;49.50
51029;DHT22;37054;52.054;8.600;2023-04-15T04:03:32;10.70;49.50
51029;DHT22;37054;52.054;8.600;2023-04-15T04:05:58;10.70;49.60
51029;DHT22;37054;52.054;8.600;2023-04-15T04:08:23;10.60;49.60
51029;DHT22;37054;52.054;8.600;2023-04-15T04:10:48;10.60;49.70
51029;DHT22;37054;52.054;8.600;2023-04-15T04:13:14;10.50;49.80
51029;DHT22;37054;52.054;8.600;2023-04-15T04:15:39;10.50;49.90
51029;DHT22;37054;52.054;8.600;2023-04-15T04:18:05;10.50;49.90
51029;DHT22;37054;52.054;8.600;2023-04-15T04:20:30;10.50;49.90
51029;DHT22;37054;52.054;8.600;2023-04-15T04:22:56;10.50;49.90
51029;DHT22;37054;52.054;8.600;2023-04-15T04:25:22;10.60;50.00
51029;DHT22;37054;52.054;8.600;2023-04-15T04:27:47;10.60;50.10
51029;DHT22;37054;52.054;8.600;2023-04-15T04:30:12;10.70;50.10
51029;DHT22;37054;52.054;8.600;2023-04-15T04:32:38;10.70;50.10
51029;DHT22;37054;52.054;8.600;2023-04-15T04:35:03;10.70;50.20
51029;DHT22;37054;52.054;8.600;2023-04-15T04:37:29;10.70;50.20
51029;DHT22;37054;52.054;8.600;2023-04-15T04:39:54;10.80;50.30
51029;DHT22;37054;52.054;8.600;2023-04-15T04:42:20;10.80;50.40
51029;DHT22;37054;52.054;8.600;2023-04-15T04:44:46;10.80;50.40
51029;DHT22;37054;52.054;8.600;2023-04-15T04:47:11;10.90;50.50
51029;DHT22;37054;52.054;8.600;2023-04-15T04:49:37;10.90;50.50
51029;DHT22;37054;52.054;8.600;2023-04-15T04:52:02;11.00;50.50
51029;DHT22;37054;52.054;8.600;2023-04-15T04:54:28;11.00;50.50
51029;DHT22;37054;52.054;8.600;2023-04-15T04:56:54;11.10;50.70
51029;DHT22;37054;52.054;8.600;2023-04-15T04:59:22;11.10;50.80
51029;DHT22;37054;52.054;8.600;2023-04-15T05:01:47;11.20;50.90
51029;DHT22;37054;52.054;8.600;2023-04-15T05:04:13;11.30;51.20
51029;DHT22;37054;52.054;8.600;2023-04-15T05:06:38;11.30;51.50
51029;DHT22;37054;52.054;8.600;2023-04-15T05:09:04;11.40;51.60
51029;DHT22;37054;52.054;8.600;2023-04-15T05:11:29;11.50;51.50
51029;DHT22;37054;52.054;8.600;2023-04-15T05:13:55;11.50;51.70
51029;DHT22;37054;52.054;8.600;2023-04-15T05:16:20;11.60;51.80
51029;DHT22;37054;52.054;8.600;2023-04-15T05:18:46;11.70;51.60
51029;DHT22;37054;52.054;8.600;2023-04-15T05:21:11;11.80;51.60
51029;DHT22;37054;52.054;8.600;2023-04-15T05:23:37;11.80;51.40
51029;DHT22;37054;52.054;8.600;2023-04-15T05:26:02;12.00;51.40
51029;DHT22;37054;52.054;8.600;2023-04-15T05:28:28;12.00;51.40
51029;DHT22;37054;52.054;8.600;2023-04-15T05:30:53;12.10;51.80
51029;DHT22;37054;52.054;8.600;2023-04-15T05:33:19;12.20;51.90
51029;DHT22;37054;52.054;8.600;2023-04-15T05:35:44;12.20;52.20
51029;DHT22;37054;52.054;8.600;2023-04-15T05:38:10;12.30;52.20
51029;DHT22;37054;52.054;8.600;2023-04-15T05:40:35;12.40;52.20
51029;DHT22;37054;52.054;8.600;2023-04-15T05:43:01;12.50;52.40
51029;DHT22;37054;52.054;8.600;2023-04-15T05:45:26;12.60;52.50
51029;DHT22;37054;52.054;8.600;2023-04-15T05:47:52;12.70;52.60
51029;DHT22;37054;52.054;8.600;2023-04-15T05:50:18;12.70;52.80
51029;DHT22;37054;52.054;8.600;2023-04-15T05:52:44;12.80;52.80
51029;DHT22;37054;52.054;8.600;2023-04-15T05:55:10;12.90;52.80
51029;DHT22;37054;52.054;8.600;2023-04-15T05:57:36;13.00;52.80
51029;DHT22;37054;52.054;8.600;2023-04-15T06:00:02;13.10;52.80
51029;DHT22;37054;52.054;8.600;2023-04-15T06:02:27;13.20;52.80
51029;DHT22;37054;52.054;8.600;2023-04-15T06:04:53;13.30;52.80
51029;DHT22;37054;52.054;8.600;2023-04-15T06:07:18;13.40;52.70
51029;DHT22;37054;52.054;8.600;2023-04-15T06:09:44;13.50;52.60
51029;DHT22;37054;52.054;8.600;2023-04-15T06:12:10;13.50;52.60
51029;DHT22;37054;52.054;8.600;2023-04-15T06:14:37;13.70;52.50
51029;DHT22;37054;52.054;8.600;2023-04-15T06:17:03;13.70;52.30
51029;DHT22;37054;52.054;8.600;2023-04-15T06:19:28;13.80;52.30
51029;DHT22;37054;52.054;8.600;2023-04-15T06:21:54;13.80;52.20
51029;DHT22;37054;52.054;8.600;2023-04-15T06:24:20;13.90;52.10
51029;DHT22;37054;52.054;8.600;2023-04-15T06:26:45;14.00;51.90
51029;DHT22;37054;52.054;8.600;2023-04-15T06:29:11;14.00;51.90
51029;DHT22;37054;52.054;8.600;2023-04-15T06:31:36;14.10;51.80
51029;DHT22;37054;52.054;8.600;2023-04-15T06:34:02;14.20;51.70
51029;DHT22;37054;52.054;8.600;2023-04-15T06:36:27;14.20;51.60
51029;DHT22;37054;52.054;8.600;2023-04-15T06:38:52;14.30;51.50
51029;DHT22;37054;52.054;8.600;2023-04-15T06:41:18;14.30;51.40
51029;DHT22;37054;52.054;8.600;2023-04-15T06:43:43;14.30;51.40
51029;DHT22;37054;52.054;8.600;2023-04-15T06:46:09;14.30;51.30
51029;DHT22;37054;52.054;8.600;2023-04-15T06:48:35;14.30;51.30
51029;DHT22;37054;52.054;8.600;2023-04-15T06:51:00;14.30;51.40
51029;DHT22;37054;52.054;8.600;2023-04-15T06:53:26;14.20;51.60
51029;DHT22;37054;52.054;8.600;2023-04-15T06:55:52;14.20;51.90
51029;DHT22;37054;52.054;8.600;2023-04-15T06:58:17;14.10;52.20
51029;DHT22;37054;52.054;8.600;2023-04-15T07:00:43;14.10;52.50
51029;DHT22;37054;52.054;8.600;2023-04-15T07:03:09;14.00;52.90
51029;DHT22;37054;52.054;8.600;2023-04-15T07:05:35;13.90;53.10
51029;DHT22;37054;52.054;8.600;2023-04-15T07:08:00;13.90;53.50
51029;DHT22;37054;52.054;8.600;2023-04-15T07:10:26;13.80;53.80
51029;DHT22;37054;52.054;8.600;2023-04-15T07:12:51;13.80;54.10
51029;DHT22;37054;52.054;8.600;2023-04-15T07:15:17;13.80;54.30
51029;DHT22;37054;52.054;8.600;2023-04-15T07:17:42;13.70;54.60
51029;DHT22;37054;52.054;8.600;2023-04-15T07:20:08;13.70;54.90
51029;DHT22;37054;52.054;8.600;2023-04-15T07:22:33;13.80;55.20
51029;DHT22;37054;52.054;8.600;2023-04-15T07:24:59;13.80;56.10
51029;DHT22;37054;52.054;8.600;2023-04-15T07:27:24;13.80;56.60
51029;DHT22;37054;52.054;8.600;2023-04-15T07:29:50;13.80;57.40
51029;DHT22;37054;52.054;8.600;2023-04-15T07:32:16;13.80;57.90
51029;DHT22;37054;52.054;8.600;2023-04-15T07:34:42;13.80;58.40
51029;DHT22;37054;52.054;8.600;2023-04-15T07:37:07;13.80;58.80
51029;DHT22;37054;52.054;8.600;2023-04-15T07:39:32;13.70;59.20
51029;DHT22;37054;52.054;8.600;2023-04-15T07:41:58;13.80;59.40
51029;DHT22;37054;52.054;8.600;2023-04-15T07:44:24;13.80;59.70
51029;DHT22;37054;52.054;8.600;2023-04-15T07:46:49;13.80;60.10
51029;DHT22;37054;52.054;8.600;2023-04-15T07:49:15;13.80;60.40
51029;DHT22;37054;52.054;8.600;2023-04-15T07:51:40;13.80;60.90
51029;DHT22;37054;52.054;8.600;2023-04-15T07:54:06;13.80;61.30
51029;DHT22;37054;52.054;8.600;2023-04-15T07:56:31;13.80;61.20
51029;DHT22;37054;52.054;8.600;2023-04-15T07:58:57;13.80;61.40
51029;DHT22;37054;52.054;8.600;2023-04-15T08:01:22;13.80;61.50
51029;DHT22;37054;52.054;8.600;2023-04-15T08:03:48;13.80;61.70
51029;DHT22;37054;52.054;8.600;2023-04-15T08:06:13;13.90;61.60
51029;DHT22;37054;52.054;8.600;2023-04-15T08:08:39;13.90;61.60
51029;DHT22;37054;52.054;8.600;2023-04-15T08:11:04;13.90;62.00
51029;DHT22;37054;52.054;8.600;2023-04-15T08:13:30;14.00;62.20
51029;DHT22;37054;52.054;8.600;2023-04-15T08:16:12;14.00;62.30
51029;DHT22;37054;52.054;8.600;2023-04-15T08:18:38;14.00;62.20
51029;DHT22;37054;52.054;8.600;2023-04-15T08:21:03;14.00;61.90
51029;DHT22;37054;52.054;8.600;2023-04-15T08:23:30;14.00;62.10
51029;DHT22;37054;52.054;8.600;2023-04-15T08:25:55;14.00;61.80
51029;DHT22;37054;52.054;8.600;2023-04-15T08:28:23;13.90;62.00
51029;DHT22;37054;52.054;8.600;2023-04-15T08:30:49;14.00;62.20
51029;DHT22;37054;52.054;8.600;2023-04-15T08:33:14;14.00;62.40
51029;DHT22;37054;52.054;8.600;2023-04-15T08:35:40;14.00;62.60
51029;DHT22;37054;52.054;8.600;2023-04-15T08:38:05;14.10;62.30
51029;DHT22;37054;52.054;8.600;2023-04-15T08:40:34;14.00;62.30
51029;DHT22;37054;52.054;8.600;2023-04-15T08:43:04;14.10;62.60
51029;DHT22;37054;52.054;8.600;2023-04-15T08:45:31;14.20;62.80
51029;DHT22;37054;52.054;8.600;2023-04-15T08:47:56;14.20;63.00
51029;DHT22;37054;52.054;8.600;2023-04-15T08:50:22;14.30;62.80
51029;DHT22;37054;52.054;8.600;2023-04-15T08:52:52;14.30;62.60
51029;DHT22;37054;52.054;8.600;2023-04-15T08:55:17;14.40;62.90
51029;DHT22;37054;52.054;8.600;2023-04-15T08:57:44;14.40;62.90
51029;DHT22;37054;52.054;8.600;2023-04-15T09:00:09;14.40;62.80
51029;DHT22;37054;52.054;8.600;2023-04-15T09:02:35;14.50;63.00
51029;DHT22;37054;52.054;8.600;2023-04-15T09:05:01;14.60;62.90
51029;DHT22;37054;52.054;8.600;2023-04-15T09:07:29;14.70;63.10
51029;DHT22;37054;52.054;8.600;2023-04-15T09:09:54;14.70;63.00
51029;DHT22;37054;52.054;8.600;2023-04-15T09:12:19;14.80;62.90
51029;DHT22;37054;52.054;8.600;2023-04-15T09:14:46;14.80;63.20
51029;DHT22;37054;52.054;8.600;2023-04-15T09:17:12;14.80;63.20
51029;DHT22;37054;52.054;8.600;2023-04-15T09:19:37;14.90;63.40
51029;DHT22;37054;52.054;8.600;2023-04-15T09:22:03;15.00;63.30
51029;DHT22;37054;52.054;8.600;2023-04-15T09:24:35;15.00;63.50
51029;DHT22;37054;52.054;8.600;2023-04-15T09:27:02;15.10;63.40
51029;DHT22;37054;52.054;8.600;2023-04-15T09:29:27;15.10;63.20
51029;DHT22;37054;52.054;8.600;2023-04-15T09:31:53;15.10;63.60
51029;DHT22;37054;52.054;8.600;2023-04-15T09:34:19;15.20;63.40
51029;DHT22;37054;52.054;8.600;2023-04-15T09:39:16;15.20;62.80
51029;DHT22;37054;52.054;8.600;2023-04-15T09:41:41;15.10;62.70
51029;DHT22;37054;52.054;8.600;2023-04-15T09:44:21;15.10;62.70
51029;DHT22;37054;52.054;8.600;2023-04-15T09:46:46;15.00;62.70
51029;DHT22;37054;52.054;8.600;2023-04-15T09:49:12;15.00;62.80
51029;DHT22;37054;52.054;8.600;2023-04-15T09:51:38;14.80;62.80
51029;DHT22;37054;52.054;8.600;2023-04-15T09:54:03;14.80;62.90
51029;DHT22;37054;52.054;8.600;2023-04-15T09:56:35;14.80;63.00
51029;DHT22;37054;52.054;8.600;2023-04-15T09:59:03;14.70;63.00
51029;DHT22;37054;52.054;8.600;2023-04-15T10:01:29;14.70;63.20
51029;DHT22;37054;52.054;8.600;2023-04-15T10:03:55;14.70;63.40
51029;DHT22;37054;52.054;8.600;2023-04-15T10:06:22;14.70;63.60
51029;DHT22;37054;52.054;8.600;2023-04-15T10:08:48;14.70;63.60
51029;DHT22;37054;52.054;8.600;2023-04-15T10:11:13;14.70;63.40
51029;DHT22;37054;52.054;8.600;2023-04-15T10:13:39;14.70;63.40
51029;DHT22;37054;52.054;8.600;2023-04-15T10:16:06;14.70;63.60
51029;DHT22;37054;52.054;8.600;2023-04-15T10:18:33;14.70;63.40
51029;DHT22;37054;52.054;8.600;2023-04-15T10:20:59;14.60;63.40
51029;DHT22;37054;52.054;8.600;2023-04-15T10:23:25;14.60;63.60
51029;DHT22;37054;52.054;8.600;2023-04-15T10:25:52;14.60;63.80
51029;DHT22;37054;52.054;8.600;2023-04-15T10:28:18;14.60;63.70
51029;DHT22;37054;52.054;8.600;2023-04-15T10:30:44;14.70;63.80
51029;DHT22;37054;52.054;8.600;2023-04-15T10:33:12;14.60;64.00
51029;DHT22;37054;52.054;8.600;2023-04-15T10:35:38;14.70;64.00
51029;DHT22;37054;52.054;8.600;2023-04-15T10:38:30;14.70;64.00
51029;DHT22;37054;52.054;8.600;2023-04-15T10:40:49;14.70;63.90
51029;DHT22;37054;52.054;8.600;2023-04-15T10:43:23;14.70;63.90
51029;DHT22;37054;52.054;8.600;2023-04-15T10:45:49;14.80;64.10
51029;DHT22;37054;52.054;8.600;2023-04-15T10:48:15;14.80;64.10
51029;DHT22;37054;52.054;8.600;2023-04-15T10:50:41;14.80;64.10
51029;DHT22;37054;52.054;8.600;2023-04-15T10:53:25;14.80;64.10
51029;DHT22;37054;52.054;8.600;2023-04-15T10:55:51;14.80;64.00
51029;DHT22;37054;52.054;8.600;2023-04-15T10:58:16;14.80;64.00
51029;DHT22;37054;52.054;8.600;2023-04-15T11:00:41;14.80;64.10
51029;DHT22;37054;52.054;8.600;2023-04-15T11:03:14;14.80;64.10
51029;DHT22;37054;52.054;8.600;2023-04-15T11:08:05;14.70;64.10
51029;DHT22;37054;52.054;8.600;2023-04-15T11:12:58;14.70;64.10
51029;DHT22;37054;52.054;8.600;2023-04-15T11:15:43;14.80;64.30
51029;DHT22;37054;52.054;8.600;2023-04-15T11:20:34;14.80;64.30
51029;DHT22;37054;52.054;8.600;2023-04-15T11:23:00;14.80;64.40
51029;DHT22;37054;52.054;8.600;2023-04-15T11:25:29;14.90;64.20
51029;DHT22;37054;52.054;8.600;2023-04-15T11:27:55;14.90;64.20
51029;DHT22;37054;52.054;8.600;2023-04-15T11:30:22;14.90;64.20
51029;DHT22;37054;52.054;8.600;2023-04-15T11:32:48;14.90;64.00
51029;DHT22;37054;52.054;8.600;2023-04-15T11:35:18;14.90;64.10
51029;DHT22;37054;52.054;8.600;2023-04-15T11:37:44;14.90;64.10
51029;DHT22;37054;52.054;8.600;2023-04-15T11:40:09;14.90;64.20
51029;DHT22;37054;52.054;8.600;2023-04-15T11:42:35;14.90;64.10
51029;DHT22;37054;52.054;8.600;2023-04-15T11:45:10;14.90;64.10
51029;DHT22;37054;52.054;8.600;2023-04-15T11:47:36;14.90;64.20
51029;DHT22;37054;52.054;8.600;2023-04-15T11:50:18;14.80;64.20
51029;DHT22;37054;52.054;8.600;2023-04-15T11:52:57;14.90;64.30
51029;DHT22;37054;52.054;8.600;2023-04-15T11:55:23;14.90;64.40
51029;DHT22;37054;52.054;8.600;2023-04-15T11:57:49;14.90;64.40
51029;DHT22;37054;52.054;8.600;2023-04-15T12:00:15;14.80;64.50
51029;DHT22;37054;52.054;8.600;2023-04-15T12:02:42;14.90;64.30
51029;DHT22;37054;52.054;8.600;2023-04-15T12:05:07;14.90;64.40
51029;DHT22;37054;52.054;8.600;2023-04-15T12:07:56;14.90;64.40
51029;DHT22;37054;52.054;8.600;2023-04-15T12:10:18;14.90;64.30
51029;DHT22;37054;52.054;8.600;2023-04-15T12:12:47;14.90;64.40
51029;DHT22;37054;52.054;8.600;2023-04-15T12:15:13;14.80;64.30
51029;DHT22;37054;52.054;8.600;2023-04-15T12:17:38;14.90;64.50
51029;DHT22;37054;52.054;8.600;2023-04-15T12:20:04;14.90;64.40
51029;DHT22;37054;52.054;8.600;2023-04-15T12:22:36;14.90;64.50
51029;DHT22;37054;52.054;8.600;2023-04-15T12:25:01;15.00;64.40
51029;DHT22;37054;52.054;8.600;2023-04-15T12:27:27;15.00;64.50
51029;DHT22;37054;52.054;8.600;2023-04-15T12:29:56;15.00;64.50
51029;DHT22;37054;52.054;8.600;2023-04-15T12:32:27;15.00;64.40
51029;DHT22;37054;52.054;8.600;2023-04-15T12:34:53;15.00;64.40
51029;DHT22;37054;52.054;8.600;2023-04-15T12:37:19;15.00;64.30
51029;DHT22;37054;52.054;8.600;2023-04-15T12:39:46;15.00;64.30
51029;DHT22;37054;52.054;8.600;2023-04-15T12:42:13;15.10;64.30
51029;DHT22;37054;52.054;8.600;2023-04-15T12:44:39;15.10;64.30
51029;DHT22;37054;52.054;8.600;2023-04-15T12:47:05;15.10;64.10
51029;DHT22;37054;52.054;8.600;2023-04-15T12:49:31;15.10;64.20
51029;DHT22;37054;52.054;8.600;2023-04-15T12:51:57;15.10;64.10
51029;DHT22;37054;52.054;8.600;2023-04-15T12:54:24;15.10;64.20
51029;DHT22;37054;52.054;8.600;2023-04-15T12:56:49;15.10;64.20
51029;DHT22;37054;52.054;8.600;2023-04-15T12:59:15;15.00;64.10
51029;DHT22;37054;52.054;8.600;2023-04-15T13:01:42;15.10;64.20
51029;DHT22;37054;52.054;8.600;2023-04-15T13:04:08;15.10;64.30
51029;DHT22;37054;52.054;8.600;2023-04-15T13:06:33;15.00;64.10
51029;DHT22;37054;52.054;8.600;2023-04-15T13:08:59;15.00;64.20
51029;DHT22;37054;52.054;8.600;2023-04-15T13:11:26;15.00;64.20
51029;DHT22;37054;52.054;8.600;2023-04-15T13:13:51;15.00;64.30
51029;DHT22;37054;52.054;8.600;2023-04-15T13:16:17;15.00;64.30
51029;DHT22;37054;52.054;8.600;2023-04-15T13:18:43;15.00;64.40
51029;DHT22;37054;52.054;8.600;2023-04-15T13:21:09;15.00;64.30
51029;DHT22;37054;52.054;8.600;2023-04-15T13:23:35;15.00;64.50
51029;DHT22;37054;52.054;8.600;2023-04-15T13:26:01;15.00;64.50
51029;DHT22;37054;52.054;8.600;2023-04-15T13:28:26;15.00;64.60
51029;DHT22;37054;52.054;8.600;2023-04-15T13:30:52;15.00;64.60
51029;DHT22;37054;52.054;8.600;2023-04-15T13:33:17;15.00;64.70
51029;DHT22;37054;52.054;8.600;2023-04-15T13:35:42;15.00;64.70
51029;DHT22;37054;52.054;8.600;2023-04-15T13:38:08;15.00;64.70
51029;DHT22;37054;52.054;8.600;2023-04-15T13:40:33;15.10;64.60
51029;DHT22;37054;52.054;8.600;2023-04-15T13:42:59;15.10;64.70
51029;DHT22;37054;52.054;8.600;2023-04-15T13:45:25;15.10;64.70
51029;DHT22;37054;52.054;8.600;2023-04-15T13:47:50;15.10;64.60
51029;DHT22;37054;52.054;8.600;2023-04-15T13:50:16;15.10;64.40
51029;DHT22;37054;52.054;8.600;2023-04-15T13:52:41;15.10;64.30
51029;DHT22;37054;52.054;8.600;2023-04-15T13:55:07;15.10;64.30
51029;DHT22;37054;52.054;8.600;2023-04-15T13:57:32;15.20;64.40
51029;DHT22;37054;52.054;8.600;2023-04-15T13:59:58;15.10;64.40
51029;DHT22;37054;52.054;8.600;2023-04-15T14:02:23;15.10;64.40
51029;DHT22;37054;52.054;8.600;2023-04-15T14:04:49;15.10;64.40
51029;DHT22;37054;52.054;8.600;2023-04-15T14:07:14;15.20;64.40
51029;DHT22;37054;52.054;8.600;2023-04-15T14:09:40;15.20;64.40
51029;DHT22;37054;52.054;8.600;2023-04-15T14:12:05;15.20;64.30
51029;DHT22;37054;52.054;8.600;2023-04-15T14:14:31;15.20;64.30
51029;DHT22;37054;52.054;8.600;2023-04-15T14:16:56;15.20;64.40
51029;DHT22;37054;52.054;8.600;2023-04-15T14:19:23;15.20;64.30
51029;DHT22;37054;52.054;8.600;2023-04-15T14:21:48;15.20;64.40
51029;DHT22;37054;52.054;8.600;2023-04-15T14:24:13;15.20;64.60
51029;DHT22;37054;52.054;8.600;2023-04-15T14:26:39;15.30;64.60
51029;DHT22;37054;52.054;8.600;2023-04-15T14:29:04;15.30;64.60
51029;DHT22;37054;52.054;8.600;2023-04-15T14:31:30;15.30;64.50
51029;DHT22;37054;52.054;8.600;2023-04-15T14:33:55;15.30;64.50
51029;DHT22;37054;52.054;8.600;2023-04-15T14:36:21;15.30;64.60
51029;DHT22;37054;52.054;8.600;2023-04-15T14:38:46;15.40;64.50
51029;DHT22;37054;52.054;8.600;2023-04-15T14:41:12;15.40;64.60
51029;DHT22;37054;52.054;8.600;2023-04-15T14:43:37;15.40;64.60
51029;DHT22;37054;52.054;8.600;2023-04-15T14:46:03;15.40;64.60
51029;DHT22;37054;52.054;8.600;2023-04-15T14:48:29;15.50;64.70
51029;DHT22;37054;52.054;8.600;2023-04-15T14:50:55;15.50;64.70
51029;DHT22;37054;52.054;8.600;2023-04-15T14:53:20;15.50;64.70
51029;DHT22;37054;52.054;8.600;2023-04-15T14:55:46;15.50;64.40
51029;DHT22;37054;52.054;8.600;2023-04-15T14:58:11;15.50;64.60
51029;DHT22;37054;52.054;8.600;2023-04-15T15:00:37;15.50;64.40
51029;DHT22;37054;52.054;8.600;2023-04-15T15:03:04;15.60;64.40
51029;DHT22;37054;52.054;8.600;2023-04-15T15:05:43;15.60;64.50
51029;DHT22;37054;52.054;8.600;2023-04-15T15:08:08;15.60;64.50
51029;DHT22;37054;52.054;8.600;2023-04-15T15:10:35;15.50;64.50
51029;DHT22;37054;52.054;8.600;2023-04-15T15:13:01;15.60;64.50
51029;DHT22;37054;52.054;8.600;2023-04-15T15:15:26;15.50;64.60
51029;DHT22;37054;52.054;8.600;2023-04-15T15:17:52;15.60;64.60
51029;DHT22;37054;52.054;8.600;2023-04-15T15:20:18;15.60;64.50
51029;DHT22;37054;52.054;8.600;2023-04-15T15:22:43;15.60;64.50
51029;DHT22;37054;52.054;8.600;2023-04-15T15:25:08;15.70;64.70
51029;DHT22;37054;52.054;8.600;2023-04-15T15:27:34;15.70;64.60
51029;DHT22;37054;52.054;8.600;2023-04-15T15:29:59;15.60;64.50
51029;DHT22;37054;52.054;8.600;2023-04-15T15:32:25;15.60;64.50